createdAt,value
2018-12-08T00:01:02.791Z,1.20
2018-12-08T00:03:30.092Z,1.30
2018-12-08T00:05:57.416Z,1.27
2018-12-08T00:08:24.690Z,1.37
2018-12-08T00:10:51.952Z,1.30
2018-12-08T00:13:19.252Z,1.20
2018-12-08T00:15:46.553Z,1.60
2018-12-08T00:18:13.849Z,1.30
2018-12-08T00:20:41.175Z,1.70
2018-12-08T00:23:08.435Z,1.63
2018-12-08T00:25:35.803Z,1.50
2018-12-08T00:28:03.157Z,1.50
2018-12-08T00:30:36.395Z,1.60
2018-12-08T00:33:03.674Z,1.87
2018-12-08T00:35:30.943Z,1.90
2018-12-08T00:37:58.232Z,1.30
2018-12-08T00:40:25.535Z,1.30
2018-12-08T00:42:52.827Z,1.53
2018-12-08T00:45:20.152Z,1.33
2018-12-08T00:47:47.415Z,1.70
2018-12-08T00:50:14.688Z,1.40
2018-12-08T00:52:41.955Z,1.57
2018-12-08T00:55:09.284Z,1.33
2018-12-08T00:57:36.588Z,1.57
2018-12-08T01:00:04.765Z,1.63
2018-12-08T01:02:32.029Z,2.00
2018-12-08T01:04:59.361Z,2.30
2018-12-08T01:07:26.765Z,2.20
2018-12-08T01:09:54.039Z,2.07
2018-12-08T01:12:21.334Z,2.50
2018-12-08T01:14:48.598Z,3.23
2018-12-08T01:17:15.906Z,2.43
2018-12-08T01:19:44.157Z,2.63
2018-12-08T01:22:11.487Z,2.40
2018-12-08T01:24:38.797Z,2.93
2018-12-08T01:27:06.080Z,3.00
2018-12-08T01:29:33.392Z,3.73
2018-12-08T01:32:00.696Z,3.43
2018-12-08T01:34:27.971Z,2.70
2018-12-08T01:36:55.336Z,3.40
2018-12-08T01:39:22.598Z,3.40
2018-12-08T01:41:49.908Z,2.93
2018-12-08T01:44:17.229Z,2.50
2018-12-08T01:46:44.515Z,2.90
2018-12-08T01:49:11.823Z,2.80
2018-12-08T01:51:39.139Z,2.93
2018-12-08T01:54:06.407Z,2.70
2018-12-08T01:56:34.659Z,3.20
2018-12-08T01:59:01.980Z,3.17
2018-12-08T02:01:29.251Z,3.03
2018-12-08T02:03:57.422Z,3.17
2018-12-08T02:06:24.737Z,2.20
2018-12-08T02:08:52.053Z,3.40
2018-12-08T02:11:24.893Z,2.87
2018-12-08T02:13:48.632Z,3.80
2018-12-08T02:16:15.940Z,3.07
2018-12-08T02:18:43.258Z,2.97
2018-12-08T02:21:10.534Z,3.00
2018-12-08T02:23:37.817Z,4.10
2018-12-08T02:26:05.119Z,5.10
2018-12-08T02:28:32.440Z,2.83
2018-12-08T02:30:59.741Z,2.63
2018-12-08T02:33:27.016Z,3.20
2018-12-08T02:35:54.291Z,3.10
2018-12-08T02:38:21.608Z,2.90
2018-12-08T02:40:48.927Z,2.63
2018-12-08T02:43:16.300Z,3.37
2018-12-08T02:45:43.618Z,3.37
2018-12-08T02:48:10.888Z,3.17
2018-12-08T02:50:38.166Z,3.10
2018-12-08T02:53:05.451Z,3.70
2018-12-08T02:55:32.738Z,3.30
2018-12-08T02:58:00.044Z,3.63
2018-12-08T03:00:27.347Z,3.30
2018-12-08T03:02:54.670Z,3.70
2018-12-08T03:05:21.939Z,2.67
2018-12-08T03:07:49.248Z,2.90
2018-12-08T03:10:16.544Z,2.77
2018-12-08T03:12:43.816Z,3.40
2018-12-08T03:15:11.120Z,4.50
2018-12-08T03:17:38.473Z,3.30
2018-12-08T03:20:05.793Z,3.33
2018-12-08T03:22:33.098Z,3.40
2018-12-08T03:25:01.428Z,3.00
2018-12-08T03:27:28.740Z,3.23
2018-12-08T03:29:56.041Z,3.67
2018-12-08T03:32:23.321Z,3.50
2018-12-08T03:34:50.679Z,3.97
2018-12-08T03:37:17.966Z,3.30
2018-12-08T03:39:45.301Z,3.23
2018-12-08T03:42:12.569Z,2.70
2018-12-08T03:44:39.851Z,2.67
2018-12-08T03:47:07.130Z,3.30
2018-12-08T03:49:34.445Z,3.00
2018-12-08T03:52:01.711Z,3.20
2018-12-08T03:54:28.990Z,2.90
2018-12-08T03:56:56.311Z,2.77
2018-12-08T03:59:24.573Z,3.47
2018-12-08T04:01:51.855Z,2.80
2018-12-08T04:04:19.204Z,3.23
2018-12-08T04:06:46.475Z,2.70
2018-12-08T04:09:13.803Z,3.93
2018-12-08T04:11:42.048Z,2.87
2018-12-08T04:14:09.311Z,2.70
2018-12-08T04:16:36.594Z,3.20
2018-12-08T04:19:03.914Z,2.90
2018-12-08T04:21:31.218Z,2.90
2018-12-08T04:23:59.449Z,2.67
2018-12-08T04:26:27.686Z,2.90
2018-12-08T04:28:54.995Z,2.90
2018-12-08T04:31:22.293Z,2.90
2018-12-08T04:33:49.567Z,2.23
2018-12-08T04:36:16.871Z,3.03
2018-12-08T04:38:44.157Z,3.03
2018-12-08T04:41:11.451Z,3.10
2018-12-08T04:43:38.764Z,2.60
2018-12-08T04:46:06.044Z,2.90
2018-12-08T04:48:33.322Z,2.63
2018-12-08T04:51:00.607Z,2.90
2018-12-08T04:53:27.908Z,2.40
2018-12-08T04:55:55.230Z,2.50
2018-12-08T04:58:22.636Z,2.70
2018-12-08T05:00:49.941Z,2.70
2018-12-08T05:03:18.119Z,2.67
2018-12-08T05:05:45.431Z,2.60
2018-12-08T05:08:12.712Z,2.90
2018-12-08T05:10:40.032Z,3.00
2018-12-08T05:13:07.332Z,3.27
2018-12-08T05:15:34.620Z,3.00
2018-12-08T05:18:01.886Z,3.00
2018-12-08T05:20:29.196Z,3.20
2018-12-08T05:22:56.468Z,2.90
2018-12-08T05:25:23.783Z,3.67
2018-12-08T05:27:51.085Z,3.90
2018-12-08T05:30:18.359Z,3.57
2018-12-08T05:32:46.603Z,3.30
2018-12-08T05:35:13.964Z,3.97
2018-12-08T05:37:41.275Z,2.80
2018-12-08T05:40:08.547Z,3.50
2018-12-08T05:42:35.810Z,3.33
2018-12-08T05:45:04.088Z,3.50
2018-12-08T05:47:31.440Z,3.30
2018-12-08T05:49:58.711Z,3.40
2018-12-08T05:52:25.991Z,3.90
2018-12-08T05:54:53.299Z,3.20
2018-12-08T05:57:20.596Z,3.33
2018-12-08T05:59:47.903Z,3.75
2018-12-08T06:02:15.200Z,3.60
2018-12-08T06:04:42.477Z,3.70
2018-12-08T06:07:09.759Z,3.70
2018-12-08T06:09:37.070Z,3.40
2018-12-08T06:12:04.356Z,3.63
2018-12-08T06:14:31.622Z,3.90
2018-12-08T06:16:58.903Z,3.50
2018-12-08T06:19:26.179Z,3.03
2018-12-08T06:21:53.484Z,3.50
2018-12-08T06:24:20.771Z,3.50
2018-12-08T06:26:48.808Z,3.50
2018-12-08T06:29:16.371Z,3.87
2018-12-08T06:31:43.643Z,3.50
2018-12-08T06:34:10.923Z,3.30
2018-12-08T06:36:38.263Z,3.30
2018-12-08T06:39:05.675Z,3.10
2018-12-08T06:41:32.979Z,3.40
2018-12-08T06:44:00.310Z,3.20
2018-12-08T06:46:27.582Z,3.13
2018-12-08T06:48:54.997Z,3.67
2018-12-08T06:51:22.279Z,3.60
2018-12-08T06:53:49.558Z,3.17
2018-12-08T06:56:16.860Z,2.73
2018-12-08T06:58:44.164Z,2.87
2018-12-08T07:01:11.456Z,3.77
2018-12-08T07:03:38.735Z,3.87
2018-12-08T07:06:06.035Z,3.40
2018-12-08T07:08:33.328Z,3.03
2018-12-08T07:11:00.603Z,3.00
2018-12-08T07:13:27.899Z,2.93
2018-12-08T07:15:55.210Z,3.00
2018-12-08T07:18:22.505Z,2.40
2018-12-08T07:20:49.800Z,2.40
2018-12-08T07:23:17.112Z,3.10
2018-12-08T07:25:44.412Z,2.80
2018-12-08T07:28:11.717Z,3.10
2018-12-08T07:30:39.012Z,2.50
2018-12-08T07:33:06.289Z,2.40
2018-12-08T07:35:33.588Z,3.20
2018-12-08T07:38:00.860Z,3.13
2018-12-08T07:40:28.143Z,3.50
2018-12-08T07:42:55.415Z,2.80
2018-12-08T07:45:22.694Z,3.10
2018-12-08T07:47:50.883Z,2.60
2018-12-08T07:50:18.186Z,2.43
2018-12-08T07:52:45.455Z,2.70
2018-12-08T07:55:12.755Z,2.73
2018-12-08T07:57:40.047Z,2.37
2018-12-08T08:00:08.348Z,2.70
2018-12-08T08:02:35.644Z,2.40
2018-12-08T08:05:02.950Z,2.23
2018-12-08T08:07:30.259Z,2.43
2018-12-08T08:09:57.518Z,2.50
2018-12-08T08:12:24.851Z,2.30
2018-12-08T08:14:52.122Z,2.63
2018-12-08T08:17:19.394Z,2.27
2018-12-08T08:19:46.724Z,1.97
2018-12-08T08:22:14.025Z,2.80
2018-12-08T08:24:41.320Z,2.40
2018-12-08T08:27:08.620Z,2.07
2018-12-08T08:29:35.902Z,2.10
2018-12-08T08:32:03.234Z,1.87
2018-12-08T08:34:30.511Z,2.27
2018-12-08T08:36:57.816Z,2.20
2018-12-08T08:39:25.247Z,1.90
2018-12-08T08:41:52.539Z,1.60
2018-12-08T08:44:19.832Z,2.20
2018-12-08T08:46:48.148Z,1.70
2018-12-08T08:49:15.442Z,2.00
2018-12-08T08:51:42.745Z,1.93
2018-12-08T08:54:10.067Z,2.37
2018-12-08T08:56:37.330Z,1.83
2018-12-08T08:59:04.701Z,1.30
2018-12-08T09:01:31.965Z,1.90
2018-12-08T09:03:59.239Z,1.97
2018-12-08T09:06:26.519Z,1.80
2018-12-08T09:08:53.829Z,1.53
2018-12-08T09:11:21.163Z,1.60
2018-12-08T09:13:48.446Z,1.90
2018-12-08T09:16:15.748Z,1.73
2018-12-08T09:18:43.038Z,1.70
2018-12-08T09:21:10.320Z,1.90
2018-12-08T09:23:37.634Z,1.60
2018-12-08T09:26:04.956Z,1.97
2018-12-08T09:28:32.490Z,1.63
2018-12-08T09:30:59.819Z,1.70
2018-12-08T09:33:27.103Z,1.60
2018-12-08T09:35:54.375Z,1.60
2018-12-08T09:38:22.587Z,2.10
2018-12-08T09:40:49.852Z,1.83
2018-12-08T09:43:17.128Z,1.50
2018-12-08T09:45:44.412Z,1.50
2018-12-08T09:48:11.844Z,1.63
2018-12-08T09:50:39.122Z,1.40
2018-12-08T09:53:08.334Z,1.50
2018-12-08T09:55:35.654Z,1.40
2018-12-08T09:58:02.935Z,1.70
2018-12-08T10:00:30.241Z,1.60
2018-12-08T10:02:57.552Z,1.60
2018-12-08T10:05:24.845Z,1.67
2018-12-08T10:07:52.160Z,1.60
2018-12-08T10:10:19.451Z,1.93
2018-12-08T10:12:46.759Z,1.70
2018-12-08T10:15:14.055Z,2.10
2018-12-08T10:17:41.364Z,1.73
2018-12-08T10:20:08.627Z,1.47
2018-12-08T10:22:35.911Z,1.50
2018-12-08T10:25:03.786Z,1.43
2018-12-08T10:27:31.084Z,1.30
2018-12-08T10:29:58.400Z,1.50
2018-12-08T10:32:25.696Z,1.47
2018-12-08T10:34:52.980Z,1.40
2018-12-08T10:37:20.258Z,1.33
2018-12-08T10:39:47.594Z,1.57
2018-12-08T10:42:14.866Z,1.53
2018-12-08T10:44:42.162Z,1.60
2018-12-08T10:47:09.480Z,1.57
2018-12-08T10:49:36.788Z,1.53
2018-12-08T10:52:04.174Z,1.60
2018-12-08T10:54:31.488Z,1.43
2018-12-08T10:56:59.654Z,1.80
2018-12-08T10:59:26.958Z,1.30
2018-12-08T11:01:55.587Z,2.13
2018-12-08T11:04:22.884Z,1.73
2018-12-08T11:06:50.150Z,1.60
2018-12-08T11:09:18.374Z,1.53
2018-12-08T11:11:45.646Z,1.77
2018-12-08T11:14:12.915Z,1.67
2018-12-08T11:16:40.266Z,1.10
2018-12-08T11:19:07.555Z,1.60
2018-12-08T11:21:34.857Z,1.53
2018-12-08T11:24:02.163Z,1.50
2018-12-08T11:26:29.463Z,1.47
2018-12-08T11:28:56.759Z,1.50
2018-12-08T11:31:24.110Z,1.40
2018-12-08T11:33:52.098Z,1.60
2018-12-08T11:36:19.480Z,1.33
2018-12-08T11:38:46.752Z,1.60
2018-12-08T11:41:14.053Z,1.30
2018-12-08T11:43:41.348Z,1.30
2018-12-08T11:46:09.452Z,1.30
2018-12-08T11:48:36.728Z,1.73
2018-12-08T11:51:04.003Z,1.47
2018-12-08T11:53:31.279Z,1.40
2018-12-08T11:55:58.657Z,1.17
2018-12-08T11:58:25.931Z,1.50
2018-12-08T12:00:53.228Z,3.97
2018-12-08T12:03:20.495Z,2.20
2018-12-08T12:05:47.770Z,1.80
2018-12-08T12:08:15.073Z,1.20
2018-12-08T12:10:42.376Z,1.50
2018-12-08T12:13:09.651Z,1.60
2018-12-08T12:15:36.955Z,1.50
2018-12-08T12:18:04.233Z,1.00
2018-12-08T12:20:31.527Z,1.23
2018-12-08T12:22:58.812Z,1.30
2018-12-08T12:25:26.414Z,1.23
2018-12-08T12:27:53.808Z,1.37
2018-12-08T12:30:21.264Z,1.30
2018-12-08T12:32:48.529Z,1.20
2018-12-08T12:35:15.794Z,1.20
2018-12-08T12:37:43.083Z,1.13
2018-12-08T12:40:10.354Z,1.40
2018-12-08T12:42:37.684Z,1.50
2018-12-08T12:45:05.062Z,1.40
2018-12-08T12:47:32.336Z,1.13
2018-12-08T12:49:59.631Z,1.30
2018-12-08T12:52:26.929Z,1.37
2018-12-08T12:54:54.196Z,1.50
2018-12-08T12:57:21.462Z,1.20
2018-12-08T12:59:48.735Z,1.30
2018-12-08T13:02:16.004Z,1.23
2018-12-08T13:04:43.324Z,1.13
2018-12-08T13:07:10.603Z,1.97
2018-12-08T13:09:37.901Z,1.73
2018-12-08T13:12:05.386Z,2.03
2018-12-08T13:14:32.654Z,2.00
2018-12-08T13:16:59.919Z,1.50
2018-12-08T13:19:27.209Z,1.60
2018-12-08T13:21:54.583Z,1.20
2018-12-08T13:24:23.754Z,1.53
2018-12-08T13:26:51.032Z,1.33
2018-12-08T13:29:18.306Z,1.60
2018-12-08T13:31:45.574Z,1.40
2018-12-08T13:34:19.608Z,1.43
2018-12-08T13:36:46.867Z,1.20
2018-12-08T13:39:14.146Z,1.60
2018-12-08T13:41:41.447Z,1.53
2018-12-08T13:44:10.600Z,1.30
2018-12-08T13:46:37.928Z,1.20
2018-12-08T13:49:05.216Z,1.80
2018-12-08T13:51:32.491Z,1.27
2018-12-08T13:54:01.671Z,1.70
2018-12-08T13:56:28.952Z,1.27
2018-12-08T13:58:56.373Z,1.63
2018-12-08T14:01:23.828Z,1.47
2018-12-08T14:03:51.111Z,1.50
2018-12-08T14:06:18.416Z,1.87
2018-12-08T14:08:46.651Z,1.57
2018-12-08T14:11:13.923Z,1.70
2018-12-08T14:13:41.227Z,1.93
2018-12-08T14:16:08.489Z,1.80
2018-12-08T14:18:35.762Z,1.70
2018-12-08T14:21:03.063Z,1.83
2018-12-08T14:23:30.364Z,1.83
2018-12-08T14:25:57.631Z,2.47
2018-12-08T14:28:24.902Z,2.10
2018-12-08T14:30:52.210Z,2.60
2018-12-08T14:33:19.585Z,2.77
2018-12-08T14:35:46.946Z,4.27
2018-12-08T14:38:14.290Z,2.33
2018-12-08T14:40:41.616Z,2.60
2018-12-08T14:43:08.948Z,2.00
2018-12-08T14:45:36.251Z,2.17
2018-12-08T14:48:04.518Z,2.33
2018-12-08T14:50:31.786Z,2.90
2018-12-08T14:52:59.093Z,3.30
2018-12-08T14:55:26.463Z,1.80
2018-12-08T14:57:54.682Z,4.40
2018-12-08T15:00:22.954Z,2.13
2018-12-08T15:02:50.259Z,2.07
2018-12-08T15:05:17.626Z,2.00
2018-12-08T15:07:44.932Z,2.00
2018-12-08T15:10:12.219Z,2.80
2018-12-08T15:12:39.527Z,1.80
2018-12-08T15:15:06.919Z,1.77
2018-12-08T15:17:34.253Z,1.60
2018-12-08T15:20:02.515Z,2.10
2018-12-08T15:22:29.807Z,1.60
2018-12-08T15:24:57.072Z,1.77
2018-12-08T15:27:24.450Z,1.77
2018-12-08T15:29:51.759Z,1.70
2018-12-08T15:32:19.026Z,3.20
2018-12-08T15:34:46.286Z,1.60
2018-12-08T15:37:13.563Z,1.30
2018-12-08T15:39:40.848Z,1.70
2018-12-08T15:42:08.216Z,1.80
2018-12-08T15:44:35.519Z,2.87
2018-12-08T15:47:02.857Z,1.77
2018-12-08T15:49:30.119Z,1.43
2018-12-08T15:51:57.427Z,2.20
2018-12-08T15:54:24.739Z,4.73
2018-12-08T15:56:52.010Z,2.03
2018-12-08T15:59:19.284Z,1.97
2018-12-08T16:01:46.592Z,1.37
2018-12-08T16:04:13.883Z,1.60
2018-12-08T16:06:41.159Z,1.87
2018-12-08T16:09:08.472Z,1.50
2018-12-08T16:11:35.799Z,1.77
2018-12-08T16:14:03.067Z,1.73
2018-12-08T16:16:30.374Z,1.80
2018-12-08T16:18:57.700Z,1.30
2018-12-08T16:21:25.003Z,1.43
2018-12-08T16:23:52.286Z,1.40
2018-12-08T16:26:19.583Z,1.67
2018-12-08T16:28:46.889Z,1.40
2018-12-08T16:31:14.171Z,1.60
2018-12-08T16:33:41.512Z,1.20
2018-12-08T16:36:08.793Z,1.50
2018-12-08T16:38:36.125Z,1.40
2018-12-08T16:41:03.398Z,1.37
2018-12-08T16:43:30.697Z,1.23
2018-12-08T16:45:58.024Z,1.20
2018-12-08T16:48:25.318Z,1.60
2018-12-08T16:50:52.607Z,1.30
2018-12-08T16:53:19.909Z,1.43
2018-12-08T16:55:48.094Z,1.50
2018-12-08T16:58:15.398Z,1.13
2018-12-08T17:00:42.691Z,1.40
2018-12-08T17:03:09.990Z,1.43
2018-12-08T17:05:37.283Z,1.20
2018-12-08T17:08:04.556Z,1.50
2018-12-08T17:10:31.828Z,1.13
2018-12-08T17:12:59.128Z,1.73
2018-12-08T17:15:26.432Z,1.30
2018-12-08T17:17:53.760Z,1.50
2018-12-08T17:20:21.026Z,1.70
2018-12-08T17:22:48.302Z,1.50
2018-12-08T17:25:15.608Z,1.40
2018-12-08T17:27:42.890Z,1.40
2018-12-08T17:30:10.160Z,1.70
2018-12-08T17:32:37.431Z,1.80
2018-12-08T17:35:04.738Z,1.43
2018-12-08T17:37:32.045Z,1.83
2018-12-08T17:39:59.353Z,1.40
2018-12-08T17:42:26.633Z,1.53
2018-12-08T17:44:53.955Z,1.60
2018-12-08T17:47:21.230Z,1.30
2018-12-08T17:49:48.548Z,1.30
2018-12-08T17:52:15.827Z,1.67
2018-12-08T17:54:46.034Z,1.70
2018-12-08T17:57:13.340Z,1.63
2018-12-08T17:59:40.642Z,1.70
2018-12-08T18:02:07.911Z,1.90
2018-12-08T18:04:35.182Z,2.00
2018-12-08T18:07:03.884Z,1.73
2018-12-08T18:09:31.155Z,2.30
2018-12-08T18:11:58.435Z,1.50
2018-12-08T18:14:25.800Z,1.97
2018-12-08T18:16:53.096Z,1.80
2018-12-08T18:19:20.372Z,1.80
2018-12-08T18:21:47.721Z,1.87
2018-12-08T18:24:15.035Z,1.80
2018-12-08T18:26:42.601Z,2.17
2018-12-08T18:29:09.946Z,1.80
2018-12-08T18:31:37.317Z,1.93
2018-12-08T18:34:04.567Z,2.20
2018-12-08T18:36:31.880Z,2.30
2018-12-08T18:38:59.196Z,1.80
2018-12-08T18:41:26.496Z,2.10
2018-12-08T18:43:53.768Z,2.10
2018-12-08T18:46:21.042Z,2.00
2018-12-08T18:48:48.344Z,1.80
2018-12-08T18:51:16.588Z,1.93
2018-12-08T18:53:43.855Z,1.73
2018-12-08T18:56:11.147Z,2.00
2018-12-08T18:58:38.423Z,2.20
2018-12-08T19:01:05.703Z,1.90
2018-12-08T19:03:33.034Z,3.10
2018-12-08T19:06:00.296Z,2.10
2018-12-08T19:08:27.554Z,2.33
2018-12-08T19:10:54.882Z,1.90
2018-12-08T19:13:22.171Z,2.30
2018-12-08T19:15:49.447Z,3.17
2018-12-08T19:18:16.748Z,2.10
2018-12-08T19:20:44.019Z,2.30
2018-12-08T19:23:11.323Z,2.40
2018-12-08T19:25:38.664Z,1.80
2018-12-08T19:28:05.939Z,2.43
2018-12-08T19:30:33.227Z,2.80
2018-12-08T19:33:00.531Z,1.83
2018-12-08T19:35:27.841Z,2.97
2018-12-08T19:37:55.152Z,1.80
2018-12-08T19:40:22.411Z,2.00
2018-12-08T19:42:49.728Z,2.00
2018-12-08T19:45:17.036Z,2.20
2018-12-08T19:47:44.315Z,2.20
2018-12-08T19:50:11.591Z,2.20
2018-12-08T19:52:39.811Z,2.17
2018-12-08T19:55:07.117Z,2.00
2018-12-08T19:57:34.407Z,2.30
2018-12-08T20:00:01.759Z,2.00
2018-12-08T20:02:29.053Z,2.60
2018-12-08T20:04:56.370Z,2.00
2018-12-08T20:07:23.642Z,2.27
2018-12-08T20:09:50.935Z,2.00
2018-12-08T20:12:18.666Z,2.30
2018-12-08T20:14:46.128Z,2.10
2018-12-08T20:17:13.432Z,2.87
2018-12-08T20:19:40.713Z,2.60
2018-12-08T20:22:08.027Z,2.00
2018-12-08T20:24:35.348Z,2.53
2018-12-08T20:27:02.648Z,2.70
2018-12-08T20:29:29.941Z,2.40
2018-12-08T20:31:57.232Z,2.23
2018-12-08T20:34:24.515Z,3.17
2018-12-08T20:36:51.828Z,4.13
2018-12-08T20:39:19.162Z,3.23
2018-12-08T20:41:46.435Z,3.03
2018-12-08T20:44:13.719Z,2.70
2018-12-08T20:46:41.023Z,2.70
2018-12-08T20:49:08.353Z,3.03
2018-12-08T20:51:35.660Z,2.50
2018-12-08T20:54:02.989Z,2.67
2018-12-08T20:56:30.275Z,2.43
2018-12-08T20:58:57.541Z,2.20
2018-12-08T21:01:24.941Z,2.17
2018-12-08T21:03:52.253Z,2.57
2018-12-08T21:06:19.583Z,2.67
2018-12-08T21:08:46.898Z,2.00
2018-12-08T21:11:14.191Z,2.70
2018-12-08T21:13:42.272Z,2.30
2018-12-08T21:16:09.561Z,2.53
2018-12-08T21:18:36.894Z,2.83
2018-12-08T21:21:04.158Z,2.90
2018-12-08T21:23:31.488Z,2.40
2018-12-08T21:25:58.780Z,3.47
2018-12-08T21:28:26.048Z,2.60
2018-12-08T21:30:53.318Z,2.47
2018-12-08T21:33:20.626Z,2.93
2018-12-08T21:35:47.916Z,2.77
2018-12-08T21:38:15.212Z,2.30
2018-12-08T21:40:42.562Z,2.43
2018-12-08T21:43:09.844Z,2.47
2018-12-08T21:45:38.435Z,3.10
2018-12-08T21:48:05.740Z,3.10
2018-12-08T21:50:33.039Z,3.00
2018-12-08T21:53:00.348Z,2.77
2018-12-08T21:55:27.640Z,2.87
2018-12-08T21:57:54.934Z,3.27
2018-12-08T22:00:24.170Z,2.40
2018-12-08T22:02:51.435Z,2.93
2018-12-08T22:05:18.755Z,2.50
2018-12-08T22:07:46.060Z,2.40
2018-12-08T22:10:13.365Z,2.80
2018-12-08T22:12:40.677Z,3.13
2018-12-08T22:15:13.659Z,3.03
2018-12-08T22:17:40.918Z,2.30
2018-12-08T22:20:08.210Z,2.40
2018-12-08T22:22:35.516Z,2.47
2018-12-08T22:25:02.990Z,2.20
2018-12-08T22:27:30.296Z,2.30
2018-12-08T22:29:57.567Z,2.33
2018-12-08T22:32:24.844Z,2.30
2018-12-08T22:34:52.130Z,2.57
2018-12-08T22:37:19.467Z,2.57
2018-12-08T22:39:46.735Z,2.30
2018-12-08T22:42:14.032Z,2.80
2018-12-08T22:44:41.304Z,2.50
2018-12-08T22:47:08.605Z,2.30
2018-12-08T22:49:35.884Z,2.23
2018-12-08T22:52:03.230Z,2.47
2018-12-08T22:54:30.503Z,2.77
2018-12-08T22:56:57.774Z,2.23
2018-12-08T22:59:25.081Z,2.20
2018-12-08T23:01:52.376Z,2.80
2018-12-08T23:04:19.672Z,2.30
2018-12-08T23:06:52.728Z,2.50
2018-12-08T23:09:19.999Z,2.80
2018-12-08T23:11:47.308Z,2.27
2018-12-08T23:14:14.651Z,2.30
2018-12-08T23:16:41.927Z,2.13
2018-12-08T23:19:09.232Z,2.10
2018-12-08T23:21:36.505Z,1.97
2018-12-08T23:24:03.804Z,2.03
2018-12-08T23:26:32.044Z,1.80
2018-12-08T23:28:59.315Z,2.07
2018-12-08T23:31:26.616Z,2.20
2018-12-08T23:33:53.907Z,2.63
2018-12-08T23:36:21.229Z,3.13
2018-12-08T23:38:48.519Z,2.30
2018-12-08T23:41:15.792Z,2.90
2018-12-08T23:43:44.482Z,2.70
2018-12-08T23:46:11.829Z,2.73
2018-12-08T23:48:39.117Z,2.63
2018-12-08T23:51:06.380Z,2.63
2018-12-08T23:53:33.683Z,2.43
2018-12-08T23:56:00.993Z,3.10
2018-12-08T23:58:28.385Z,2.20
